Time,TemperatureF,DewpointF,PressureIn,WindDirection,WindDirectionDegrees,WindSpeedMPH,WindSpeedGustMPH,Humidity,HourlyPrecipIn,Conditions,Clouds,dailyrainin,SoftwareType,DateUTC
2013-10-12 00:01:00,62.3,60.6,30.00,NNW,338,0.0,0.0,94,0.00,,---,0.00,VWS V14.01,2013-10-12 04:01:00,
2013-10-12 00:06:00,62.1,60.4,30.00,NNW,338,0.0,0.0,94,0.00,,---,0.00,VWS V14.01,2013-10-12 04:06:00,
2013-10-12 00:11:00,61.9,60.2,30.00,NNW,338,0.0,0.0,94,0.00,,---,0.00,VWS V14.01,2013-10-12 04:11:00,
2013-10-12 00:16:00,61.7,60.0,30.00,NNW,338,0.0,0.0,94,0.00,,---,0.00,VWS V14.01,2013-10-12 04:16:00,
2013-10-12 00:21:00,61.6,60.2,30.00,NNW,338,0.0,0.0,95,0.00,,---,0.00,VWS V14.01,2013-10-12 04:21:00,
2013-10-12 00:26:00,61.6,60.2,30.00,NNE,23,0.0,0.0,95,0.00,,---,0.00,VWS V14.01,2013-10-12 04:26:00,
2013-10-12 00:31:00,61.6,60.2,30.00,NE,42,3.0,4.0,95,0.00,,---,0.00,VWS V14.01,2013-10-12 04:31:00,
2013-10-12 00:36:00,61.8,60.4,30.00,NNE,32,3.0,3.0,95,0.00,,---,0.00,VWS V14.01,2013-10-12 04:36:00,
2013-10-12 00:41:00,61.8,60.4,30.00,NNE,23,2.0,2.0,95,0.00,,---,0.00,VWS V14.01,2013-10-12 04:41:00,
2013-10-12 00:46:00,61.8,60.1,30.00,NNE,14,1.0,1.0,94,0.00,,---,0.00,VWS V14.01,2013-10-12 04:46:00,
2013-10-12 00:51:00,61.8,60.1,30.00,NNE,27,0.0,1.0,94,0.00,,---,0.00,VWS V14.01,2013-10-12 04:51:00,
2013-10-12 00:56:00,61.8,60.1,30.00,NNE,27,2.0,2.0,94,0.00,,---,0.00,VWS V14.01,2013-10-12 04:56:00,
2013-10-12 01:01:00,61.9,60.2,30.00,NNE,19,2.0,2.0,94,0.00,,---,0.00,VWS V14.01,2013-10-12 05:01:00,
2013-10-12 01:06:00,61.9,60.2,30.00,NNE,26,1.0,1.0,94,0.00,,---,0.00,VWS V14.01,2013-10-12 05:06:00,
2013-10-12 01:11:00,61.9,60.2,30.00,NNE,26,1.0,1.0,94,0.00,,---,0.00,VWS V14.01,2013-10-12 05:11:00,
2013-10-12 01:16:00,61.9,60.2,30.00,NNE,26,1.0,1.0,94,0.00,,---,0.00,VWS V14.01,2013-10-12 05:16:00,
2013-10-12 01:21:00,61.9,60.2,30.00,NNE,25,1.0,1.0,94,0.00,,---,0.00,VWS V14.01,2013-10-12 05:21:00,
2013-10-12 01:26:00,61.8,60.1,30.00,NNE,25,0.0,0.0,94,0.00,,---,0.00,VWS V14.01,2013-10-12 05:26:00,
2013-10-12 01:31:00,61.8,60.1,30.00,NNE,26,0.0,0.0,94,0.00,,---,0.00,VWS V14.01,2013-10-12 05:31:00,
2013-10-12 01:36:00,61.8,60.1,30.00,NNE,25,0.0,0.0,94,0.00,,---,0.00,VWS V14.01,2013-10-12 05:36:00,
2013-10-12 01:41:00,61.8,60.1,30.00,NNE,26,0.0,0.0,94,0.00,,---,0.00,VWS V14.01,2013-10-12 05:41:00,
2013-10-12 01:46:00,61.8,60.1,30.00,NNE,25,0.0,0.0,94,0.00,,---,0.00,VWS V14.01,2013-10-12 05:46:00,
2013-10-12 01:51:00,61.8,60.1,30.00,NNE,28,1.0,1.0,94,0.00,,---,0.00,VWS V14.01,2013-10-12 05:51:00,
2013-10-12 01:56:00,61.8,60.1,30.00,NNE,26,0.0,1.0,94,0.00,,---,0.00,VWS V14.01,2013-10-12 05:56:00,
2013-10-12 02:01:00,61.8,60.1,30.00,NNE,26,0.0,0.0,94,0.00,,---,0.00,VWS V14.01,2013-10-12 06:01:00,
2013-10-12 02:06:00,61.8,60.1,30.00,NNE,25,1.0,1.0,94,0.00,,---,0.00,VWS V14.01,2013-10-12 06:06:00,
2013-10-12 02:11:00,61.8,60.1,30.00,NNE,27,1.0,1.0,94,0.00,,---,0.00,VWS V14.01,2013-10-12 06:11:00,
2013-10-12 02:16:00,61.8,59.8,29.99,NNE,27,0.0,1.0,93,0.00,,---,0.00,VWS V14.01,2013-10-12 06:16:00,
2013-10-12 02:21:00,61.8,59.8,29.99,NNE,27,1.0,1.0,93,0.00,,---,0.00,VWS V14.01,2013-10-12 06:21:00,
2013-10-12 02:26:00,61.8,59.8,29.99,NNE,27,1.0,1.0,93,0.00,,---,0.00,VWS V14.01,2013-10-12 06:26:00,
2013-10-12 02:31:00,61.8,59.8,29.99,NNE,27,1.0,2.0,93,0.00,,---,0.00,VWS V14.01,2013-10-12 06:31:00,
2013-10-12 02:36:00,61.8,59.8,29.99,NNE,13,2.0,4.0,93,0.00,,---,0.00,VWS V14.01,2013-10-12 06:36:00,
2013-10-12 02:41:00,61.9,59.9,30.00,NE,44,3.0,4.0,93,0.00,,---,0.00,VWS V14.01,2013-10-12 06:41:00,
2013-10-12 02:46:00,62.0,59.7,29.99,NNE,19,3.0,5.0,92,0.00,,---,0.00,VWS V14.01,2013-10-12 06:46:00,
2013-10-12 02:51:00,62.1,59.8,29.99,NE,47,2.0,3.0,92,0.00,,---,0.00,VWS V14.01,2013-10-12 06:51:00,
2013-10-12 02:56:00,62.1,59.8,29.99,NNE,29,3.0,3.0,92,0.00,,---,0.00,VWS V14.01,2013-10-12 06:56:00,
2013-10-12 03:01:00,62.1,59.8,29.99,NNE,30,4.0,4.0,92,0.00,,---,0.00,VWS V14.01,2013-10-12 07:01:00,
2013-10-12 03:06:00,62.1,59.8,29.99,NE,44,1.0,2.0,92,0.00,,---,0.00,VWS V14.01,2013-10-12 07:06:00,
2013-10-12 03:11:00,62.0,59.7,29.99,NE,35,3.0,5.0,92,0.00,,---,0.00,VWS V14.01,2013-10-12 07:11:00,
2013-10-12 03:16:00,62.0,59.7,29.99,NNE,31,2.0,2.0,92,0.00,,---,0.00,VWS V14.01,2013-10-12 07:16:00,
2013-10-12 03:21:00,62.0,59.7,29.99,NNE,31,2.0,3.0,92,0.00,,---,0.00,VWS V14.01,2013-10-12 07:21:00,
2013-10-12 03:26:00,61.9,59.5,29.98,NNE,32,2.0,2.0,92,0.00,,---,0.00,VWS V14.01,2013-10-12 07:26:00,
2013-10-12 03:31:00,61.9,59.5,29.98,NNE,27,2.0,2.0,92,0.00,,---,0.00,VWS V14.01,2013-10-12 07:31:00,
2013-10-12 03:36:00,61.8,59.5,29.98,NNE,26,2.0,2.0,92,0.00,,---,0.00,VWS V14.01,2013-10-12 07:36:00,
2013-10-12 03:41:00,61.7,59.4,29.98,NNE,26,2.0,2.0,92,0.00,,---,0.00,VWS V14.01,2013-10-12 07:41:00,
2013-10-12 03:46:00,61.7,59.4,29.99,NNE,26,1.0,1.0,92,0.00,,---,0.00,VWS V14.01,2013-10-12 07:46:00,
2013-10-12 03:51:00,61.6,59.3,29.99,NNE,26,0.0,1.0,92,0.00,,---,0.00,VWS V14.01,2013-10-12 07:51:00,
2013-10-12 03:56:00,61.6,59.3,29.99,NNE,25,1.0,1.0,92,0.00,,---,0.00,VWS V14.01,2013-10-12 07:56:00,
2013-10-12 04:01:00,61.6,59.6,29.99,NNE,25,1.0,1.0,93,0.00,,---,0.00,VWS V14.01,2013-10-12 08:01:00,
2013-10-12 04:06:00,61.6,59.6,29.99,NNE,26,2.0,2.0,93,0.00,,---,0.00,VWS V14.01,2013-10-12 08:06:00,
2013-10-12 04:11:00,61.6,59.6,29.99,NNE,27,1.0,1.0,93,0.00,,---,0.00,VWS V14.01,2013-10-12 08:11:00,
2013-10-12 04:16:00,61.6,59.6,29.99,NNE,30,1.0,1.0,93,0.00,,---,0.00,VWS V14.01,2013-10-12 08:16:00,
2013-10-12 04:21:00,61.6,59.6,29.99,NNE,31,2.0,2.0,93,0.00,,---,0.00,VWS V14.01,2013-10-12 08:21:00,
2013-10-12 04:26:00,61.6,59.6,29.99,NNE,31,1.0,2.0,93,0.00,,---,0.00,VWS V14.01,2013-10-12 08:26:00,
2013-10-12 04:31:00,61.7,59.7,29.99,NNE,30,2.0,2.0,93,0.00,,---,0.00,VWS V14.01,2013-10-12 08:31:00,
2013-10-12 04:36:00,61.7,59.7,29.99,NNE,31,1.0,1.0,93,0.00,,---,0.00,VWS V14.01,2013-10-12 08:36:00,
2013-10-12 04:41:00,61.7,59.7,29.99,NNE,31,1.0,1.0,93,0.00,,---,0.00,VWS V14.01,2013-10-12 08:41:00,
2013-10-12 04:46:00,61.7,59.7,29.99,NNE,31,1.0,1.0,93,0.00,,---,0.00,VWS V14.01,2013-10-12 08:46:00,
2013-10-12 04:51:00,61.7,59.7,29.99,NNE,31,1.0,1.0,93,0.00,,---,0.00,VWS V14.01,2013-10-12 08:51:00,
2013-10-12 04:56:00,61.7,59.7,29.99,NNE,31,0.0,0.0,93,0.00,,---,0.00,VWS V14.01,2013-10-12 08:56:00,
2013-10-12 05:01:00,61.7,59.7,29.99,NNE,25,2.0,2.0,93,0.00,,---,0.00,VWS V14.01,2013-10-12 09:01:00,
2013-10-12 05:06:00,61.7,59.7,29.99,NNE,30,2.0,2.0,93,0.00,,---,0.00,VWS V14.01,2013-10-12 09:06:00,
2013-10-12 05:11:00,61.7,59.7,30.00,NNE,33,4.0,4.0,93,0.00,,---,0.00,VWS V14.01,2013-10-12 09:11:00,
2013-10-12 05:16:00,61.8,59.8,30.00,NNE,33,3.0,3.0,93,0.00,,---,0.00,VWS V14.01,2013-10-12 09:16:00,
2013-10-12 05:21:00,61.8,59.8,30.00,NNE,32,4.0,4.0,93,0.00,,---,0.00,VWS V14.01,2013-10-12 09:21:00,
2013-10-12 05:26:00,61.9,59.9,30.00,NE,50,3.0,3.0,93,0.00,,---,0.00,VWS V14.01,2013-10-12 09:26:00,
2013-10-12 05:31:00,61.9,59.5,30.00,NE,35,2.0,3.0,92,0.00,,---,0.00,VWS V14.01,2013-10-12 09:31:00,
2013-10-12 05:36:00,61.9,59.5,30.00,NNE,24,1.0,1.0,92,0.00,,---,0.00,VWS V14.01,2013-10-12 09:36:00,
2013-10-12 05:41:00,61.9,59.5,30.01,NNE,31,3.0,3.0,92,0.00,,---,0.00,VWS V14.01,2013-10-12 09:41:00,
2013-10-12 05:46:00,61.9,59.5,30.01,NNE,27,2.0,2.0,92,0.00,,---,0.00,VWS V14.01,2013-10-12 09:46:00,
2013-10-12 05:51:00,61.9,59.5,30.01,NE,36,2.0,2.0,92,0.00,,---,0.00,VWS V14.01,2013-10-12 09:51:00,
2013-10-12 05:56:00,61.9,59.5,30.01,NE,36,1.0,1.0,92,0.00,,---,0.00,VWS V14.01,2013-10-12 09:56:00,
2013-10-12 06:01:00,61.9,59.5,30.01,NE,39,1.0,1.0,92,0.00,,---,0.00,VWS V14.01,2013-10-12 10:01:00,
2013-10-12 06:06:00,61.8,59.5,30.02,NE,43,3.0,4.0,92,0.00,,---,0.00,VWS V14.01,2013-10-12 10:06:00,
2013-10-12 06:11:00,61.8,59.5,30.02,NNE,31,3.0,3.0,92,0.00,,---,0.00,VWS V14.01,2013-10-12 10:11:00,
2013-10-12 06:16:00,61.8,59.5,30.02,NNE,18,2.0,3.0,92,0.00,,---,0.00,VWS V14.01,2013-10-12 10:16:00,
2013-10-12 06:21:00,61.8,59.5,30.01,NNE,16,2.0,3.0,92,0.00,,---,0.00,VWS V14.01,2013-10-12 10:21:00,
2013-10-12 06:26:00,61.9,59.5,30.02,NNE,28,2.0,3.0,92,0.00,,---,0.00,VWS V14.01,2013-10-12 10:26:00,
2013-10-12 06:31:00,61.9,59.5,30.02,NE,36,1.0,3.0,92,0.00,,---,0.00,VWS V14.01,2013-10-12 10:31:00,
2013-10-12 06:36:00,61.9,59.5,30.02,NNE,23,2.0,2.0,92,0.00,,---,0.00,VWS V14.01,2013-10-12 10:36:00,
2013-10-12 06:41:00,61.9,59.5,30.02,NNE,32,3.0,3.0,92,0.00,,---,0.00,VWS V14.01,2013-10-12 10:41:00,
2013-10-12 06:46:00,61.9,59.5,30.02,NNE,31,2.0,4.0,92,0.00,,---,0.00,VWS V14.01,2013-10-12 10:46:00,
2013-10-12 06:51:00,61.8,59.5,30.02,NNE,31,1.0,1.0,92,0.00,,---,0.00,VWS V14.01,2013-10-12 10:51:00,
2013-10-12 06:56:00,61.8,59.5,30.02,NNE,27,3.0,3.0,92,0.00,,---,0.00,VWS V14.01,2013-10-12 10:56:00,
2013-10-12 07:01:00,61.8,59.8,30.02,NE,47,2.0,3.0,93,0.00,,---,0.00,VWS V14.01,2013-10-12 11:01:00,
2013-10-12 07:06:00,61.8,59.8,30.02,NNE,24,2.0,2.0,93,0.00,,---,0.00,VWS V14.01,2013-10-12 11:06:00,
2013-10-12 07:11:00,61.8,59.8,30.02,NNE,27,2.0,2.0,93,0.00,,---,0.00,VWS V14.01,2013-10-12 11:11:00,
2013-10-12 07:16:00,61.8,59.8,30.02,NNE,25,3.0,3.0,93,0.00,,---,0.00,VWS V14.01,2013-10-12 11:16:00,
2013-10-12 07:21:00,61.8,59.8,30.02,NNE,26,1.0,3.0,93,0.00,,---,0.00,VWS V14.01,2013-10-12 11:21:00,
2013-10-12 07:26:00,61.8,59.8,30.02,NNE,19,2.0,3.0,93,0.00,,---,0.00,VWS V14.01,2013-10-12 11:26:00,
2013-10-12 07:31:00,61.8,59.8,30.02,NNE,30,2.0,4.0,93,0.00,,---,0.00,VWS V14.01,2013-10-12 11:31:00,
2013-10-12 07:36:00,61.8,59.8,30.03,NNE,30,2.0,3.0,93,0.00,,---,0.00,VWS V14.01,2013-10-12 11:36:00,
2013-10-12 07:40:00,61.8,59.8,30.03,NE,47,1.0,2.0,93,0.00,,---,0.00,VWS V14.01,2013-10-12 11:40:00,
2013-10-12 07:45:00,61.8,59.8,30.03,NNE,24,3.0,4.0,93,0.00,,---,0.00,VWS V14.01,2013-10-12 11:45:00,
2013-10-12 07:50:00,61.8,59.8,30.03,NE,40,4.0,4.0,93,0.00,,---,0.00,VWS V14.01,2013-10-12 11:50:00,
2013-10-12 07:55:00,61.9,59.9,30.03,NE,53,2.0,3.0,93,0.00,,---,0.00,VWS V14.01,2013-10-12 11:55:00,
2013-10-12 08:00:00,61.9,59.9,30.04,NE,38,2.0,3.0,93,0.00,,---,0.00,VWS V14.01,2013-10-12 12:00:00,
2013-10-12 08:05:00,61.9,59.9,30.04,NNE,23,2.0,2.0,93,0.00,,---,0.00,VWS V14.01,2013-10-12 12:05:00,
2013-10-12 08:10:00,61.9,59.9,30.04,NNE,29,1.0,2.0,93,0.00,,---,0.00,VWS V14.01,2013-10-12 12:10:00,
2013-10-12 08:15:00,61.9,59.9,30.04,NNE,18,1.0,3.0,93,0.00,,---,0.00,VWS V14.01,2013-10-12 12:15:00,
2013-10-12 08:20:00,61.9,59.9,30.04,NNE,32,3.0,3.0,93,0.00,,---,0.00,VWS V14.01,2013-10-12 12:20:00,
2013-10-12 08:25:00,62.0,60.0,30.04,NNE,26,2.0,2.0,93,0.00,,---,0.00,VWS V14.01,2013-10-12 12:25:00,
2013-10-12 08:30:00,62.1,60.1,30.04,NNE,29,3.0,3.0,93,0.00,,---,0.00,VWS V14.01,2013-10-12 12:30:00,
2013-10-12 08:35:00,62.1,60.1,30.04,NNE,32,3.0,3.0,93,0.00,,---,0.00,VWS V14.01,2013-10-12 12:35:00,
2013-10-12 08:40:00,62.1,60.1,30.04,NNE,23,2.0,2.0,93,0.00,,---,0.00,VWS V14.01,2013-10-12 12:40:00,
2013-10-12 08:45:00,62.2,60.2,30.05,NNE,30,2.0,3.0,93,0.00,,---,0.00,VWS V14.01,2013-10-12 12:45:00,
2013-10-12 08:50:00,62.2,60.2,30.05,NNE,32,3.0,3.0,93,0.00,,---,0.00,VWS V14.01,2013-10-12 12:50:00,
2013-10-12 08:55:00,62.2,60.2,30.05,NNE,27,4.0,4.0,93,0.00,,---,0.00,VWS V14.01,2013-10-12 12:55:00,
2013-10-12 09:00:00,62.2,60.2,30.05,NE,38,2.0,3.0,93,0.00,,---,0.00,VWS V14.01,2013-10-12 13:00:00,
2013-10-12 09:05:00,62.2,60.2,30.05,NNE,29,1.0,3.0,93,0.00,,---,0.00,VWS V14.01,2013-10-12 13:05:00,
2013-10-12 09:10:00,62.3,60.2,30.05,NE,50,2.0,2.0,93,0.00,,---,0.00,VWS V14.01,2013-10-12 13:10:00,
2013-10-12 09:15:00,62.4,60.3,30.06,NE,42,0.0,3.0,93,0.00,,---,0.00,VWS V14.01,2013-10-12 13:15:00,
2013-10-12 09:20:00,62.6,60.5,30.06,NE,44,0.0,2.0,93,0.00,,---,0.00,VWS V14.01,2013-10-12 13:20:00,
2013-10-12 09:25:00,62.7,60.7,30.06,NNE,33,2.0,2.0,93,0.00,,---,0.00,VWS V14.01,2013-10-12 13:25:00,
2013-10-12 09:30:00,62.8,60.5,30.06,NNE,32,2.0,3.0,92,0.00,,---,0.00,VWS V14.01,2013-10-12 13:30:00,
2013-10-12 09:35:00,63.0,60.6,30.06,NNE,22,1.0,4.0,92,0.00,,---,0.00,VWS V14.01,2013-10-12 13:35:00,
2013-10-12 09:40:00,63.0,60.6,30.05,NNE,23,2.0,2.0,92,0.00,,---,0.00,VWS V14.01,2013-10-12 13:40:00,
2013-10-12 09:45:00,63.2,60.8,30.06,NNE,33,3.0,3.0,92,0.00,,---,0.00,VWS V14.01,2013-10-12 13:45:00,
2013-10-12 09:50:00,63.3,60.9,30.06,NE,36,1.0,3.0,92,0.00,,---,0.00,VWS V14.01,2013-10-12 13:50:00,
2013-10-12 09:55:00,63.2,60.8,30.06,NNE,25,2.0,3.0,92,0.00,,---,0.00,VWS V14.01,2013-10-12 13:55:00,
2013-10-12 10:00:00,63.3,60.9,30.06,NNE,23,2.0,2.0,92,0.00,,---,0.00,VWS V14.01,2013-10-12 14:00:00,
2013-10-12 10:05:00,63.4,61.0,30.06,NNW,340,1.0,1.0,92,0.00,,---,0.00,VWS V14.01,2013-10-12 14:05:00,
2013-10-12 10:10:00,63.5,60.8,30.05,NNW,329,0.0,2.0,91,0.00,,---,0.00,VWS V14.01,2013-10-12 14:10:00,
2013-10-12 10:15:00,63.6,60.9,30.05,NNW,347,1.0,2.0,91,0.00,,---,0.00,VWS V14.01,2013-10-12 14:15:00,
2013-10-12 10:20:00,63.8,61.1,30.06,NNE,31,2.0,2.0,91,0.00,,---,0.00,VWS V14.01,2013-10-12 14:20:00,
2013-10-12 10:25:00,63.9,61.2,30.06,NNE,18,2.0,2.0,91,0.00,,---,0.00,VWS V14.01,2013-10-12 14:25:00,
2013-10-12 10:30:00,64.1,61.4,30.06,NNW,329,0.0,1.0,91,0.00,,---,0.00,VWS V14.01,2013-10-12 14:30:00,
2013-10-12 10:35:00,64.4,61.7,30.06,NNE,31,2.0,2.0,91,0.00,,---,0.00,VWS V14.01,2013-10-12 14:35:00,
2013-10-12 10:40:00,64.3,61.3,30.06,NNE,27,2.0,3.0,90,0.00,,---,0.00,VWS V14.01,2013-10-12 14:40:00,
2013-10-12 10:45:00,64.2,61.2,30.06,NNE,20,0.0,1.0,90,0.00,,---,0.00,VWS V14.01,2013-10-12 14:45:00,
2013-10-12 10:50:00,64.4,61.4,30.06,NNE,28,2.0,2.0,90,0.00,,---,0.00,VWS V14.01,2013-10-12 14:50:00,
2013-10-12 10:55:00,64.6,61.6,30.06,NNE,12,2.0,2.0,90,0.00,,---,0.00,VWS V14.01,2013-10-12 14:55:00,
2013-10-12 11:00:00,64.8,61.8,30.06,West,275,0.0,0.0,90,0.00,,---,0.00,VWS V14.01,2013-10-12 15:00:00,
2013-10-12 11:05:00,64.8,61.8,30.06,West,275,0.0,0.0,90,0.00,,---,0.00,VWS V14.01,2013-10-12 15:05:00,
2013-10-12 11:10:00,65.3,62.3,30.06,NE,43,3.0,3.0,90,0.00,,---,0.00,VWS V14.01,2013-10-12 15:10:00,
2013-10-12 11:15:00,65.2,61.9,30.06,NNE,27,1.0,1.0,89,0.00,,---,0.00,VWS V14.01,2013-10-12 15:15:00,
2013-10-12 11:20:00,65.2,61.9,30.06,NE,49,2.0,3.0,89,0.00,,---,0.00,VWS V14.01,2013-10-12 15:20:00,
2013-10-12 11:25:00,65.2,61.9,30.06,NNE,23,1.0,1.0,89,0.00,,---,0.00,VWS V14.01,2013-10-12 15:25:00,
2013-10-12 11:30:00,65.3,62.0,30.07,West,280,3.0,5.0,89,0.00,,---,0.00,VWS V14.01,2013-10-12 15:30:00,
2013-10-12 11:36:00,65.1,62.1,30.07,West,280,2.0,2.0,90,0.00,,---,0.00,VWS V14.01,2013-10-12 15:36:00,
2013-10-12 11:42:00,65.1,62.1,30.07,NNE,23,2.0,4.0,90,0.00,,---,0.00,VWS V14.01,2013-10-12 15:42:00,
2013-10-12 11:47:00,65.3,62.3,30.07,NW,305,0.0,1.0,90,0.00,,---,0.00,VWS V14.01,2013-10-12 15:47:00,
2013-10-12 11:52:00,65.6,62.6,30.07,WNW,287,4.0,4.0,90,0.00,,---,0.00,VWS V14.01,2013-10-12 15:52:00,
2013-10-12 11:57:00,65.8,62.2,30.06,NE,36,3.0,4.0,88,0.00,,---,0.00,VWS V14.01,2013-10-12 15:57:00,
2013-10-12 12:02:00,65.9,62.2,30.06,NNE,32,2.0,2.0,88,0.00,,---,0.00,VWS V14.01,2013-10-12 16:02:00,
2013-10-12 12:07:00,66.0,62.3,30.06,WNW,291,1.0,3.0,88,0.00,,---,0.00,VWS V14.01,2013-10-12 16:07:00,
2013-10-12 12:12:00,66.4,62.7,30.06,NE,36,0.0,1.0,88,0.00,,---,0.00,VWS V14.01,2013-10-12 16:12:00,
2013-10-12 12:17:00,66.5,62.5,30.06,SSW,210,0.0,0.0,87,0.00,,---,0.00,VWS V14.01,2013-10-12 16:17:00,
2013-10-12 12:22:00,66.6,62.6,30.06,WNW,297,0.0,1.0,87,0.00,,---,0.00,VWS V14.01,2013-10-12 16:22:00,
2013-10-12 12:27:00,66.7,62.7,30.06,NNW,329,2.0,2.0,87,0.00,,---,0.00,VWS V14.01,2013-10-12 16:27:00,
2013-10-12 12:33:00,66.7,62.7,30.06,NNE,33,2.0,2.0,87,0.00,,---,0.00,VWS V14.01,2013-10-12 16:33:00,
2013-10-12 12:38:00,66.7,62.7,30.06,NNE,32,4.0,4.0,87,0.00,,---,0.00,VWS V14.01,2013-10-12 16:38:00,
2013-10-12 12:43:00,66.7,63.0,30.06,NNE,24,0.0,3.0,88,0.00,,---,0.00,VWS V14.01,2013-10-12 16:43:00,
2013-10-12 12:48:00,66.6,62.6,30.06,North,5,2.0,3.0,87,0.00,,---,0.00,VWS V14.01,2013-10-12 16:48:00,
2013-10-12 12:53:00,66.5,62.8,30.05,NNE,30,2.0,2.0,88,0.00,,---,0.00,VWS V14.01,2013-10-12 16:53:00,
2013-10-12 12:58:00,66.3,63.0,30.05,NNE,22,1.0,2.0,89,0.00,,---,0.00,VWS V14.01,2013-10-12 16:58:00,
2013-10-12 13:03:00,66.2,62.9,30.05,North,355,2.0,4.0,89,0.00,,---,0.00,VWS V14.01,2013-10-12 17:03:00,
2013-10-12 13:08:00,65.9,62.6,30.05,NNE,26,1.0,2.0,89,0.00,,---,0.00,VWS V14.01,2013-10-12 17:08:00,
2013-10-12 13:13:00,66.0,62.7,30.05,NNE,20,0.0,1.0,89,0.00,,---,0.00,VWS V14.01,2013-10-12 17:13:00,
2013-10-12 13:18:00,66.3,63.0,30.05,NE,38,2.0,2.0,89,0.00,,---,0.00,VWS V14.01,2013-10-12 17:18:00,
2013-10-12 13:23:00,66.7,63.4,30.05,NW,325,0.0,1.0,89,0.00,,---,0.00,VWS V14.01,2013-10-12 17:23:00,
2013-10-12 13:28:00,67.0,63.0,30.05,NNE,22,2.0,2.0,87,0.00,,---,0.00,VWS V14.01,2013-10-12 17:28:00,
2013-10-12 13:33:00,67.2,63.2,30.05,WNW,283,2.0,2.0,87,0.00,,---,0.00,VWS V14.01,2013-10-12 17:33:00,
2013-10-12 13:38:00,67.3,63.3,30.04,ENE,57,0.0,3.0,87,0.00,,---,0.00,VWS V14.01,2013-10-12 17:38:00,
2013-10-12 13:43:00,67.5,63.5,30.04,NNE,31,4.0,4.0,87,0.00,,---,0.00,VWS V14.01,2013-10-12 17:43:00,
2013-10-12 13:48:00,67.4,63.4,30.04,NNW,338,2.0,2.0,87,0.00,,---,0.00,VWS V14.01,2013-10-12 17:48:00,
2013-10-12 13:53:00,67.3,63.3,30.03,NNE,28,2.0,2.0,87,0.00,,---,0.00,VWS V14.01,2013-10-12 17:53:00,
2013-10-12 13:58:00,67.5,63.8,30.03,West,270,1.0,3.0,88,0.00,,---,0.00,VWS V14.01,2013-10-12 17:58:00,
2013-10-12 14:03:00,67.5,63.8,30.03,NW,322,2.0,2.0,88,0.00,,---,0.00,VWS V14.01,2013-10-12 18:03:00,
2013-10-12 14:08:00,67.4,63.7,30.03,NNE,29,0.0,1.0,88,0.00,,---,0.00,VWS V14.01,2013-10-12 18:08:00,
2013-10-12 14:13:00,67.2,63.5,30.03,NE,36,1.0,1.0,88,0.00,,---,0.00,VWS V14.01,2013-10-12 18:13:00,
2013-10-12 14:18:00,67.1,63.4,30.03,NNE,29,3.0,3.0,88,0.00,,---,0.00,VWS V14.01,2013-10-12 18:18:00,
2013-10-12 14:23:00,67.0,63.7,30.04,NNE,29,2.0,2.0,89,0.00,,---,0.00,VWS V14.01,2013-10-12 18:23:00,
2013-10-12 14:28:00,67.1,63.8,30.03,WNW,283,0.0,0.0,89,0.00,,---,0.00,VWS V14.01,2013-10-12 18:28:00,
2013-10-12 14:33:00,67.1,63.8,30.03,WNW,290,0.0,3.0,89,0.00,,---,0.00,VWS V14.01,2013-10-12 18:33:00,
2013-10-12 14:38:00,66.9,63.2,30.04,NNE,26,1.0,3.0,88,0.00,,---,0.00,VWS V14.01,2013-10-12 18:38:00,
2013-10-12 14:43:00,66.8,63.5,30.04,NNE,12,1.0,2.0,89,0.00,,---,0.00,VWS V14.01,2013-10-12 18:43:00,
2013-10-12 14:48:00,66.8,63.5,30.04,NE,38,3.0,3.0,89,0.00,,---,0.00,VWS V14.01,2013-10-12 18:48:00,
2013-10-12 14:53:00,66.7,63.4,30.04,West,269,3.0,3.0,89,0.00,,---,0.00,VWS V14.01,2013-10-12 18:53:00,
2013-10-12 14:58:00,66.8,63.5,30.04,WNW,292,0.0,1.0,89,0.00,,---,0.00,VWS V14.01,2013-10-12 18:58:00,
2013-10-12 15:03:00,66.9,63.6,30.04,West,275,1.0,1.0,89,0.00,,---,0.00,VWS V14.01,2013-10-12 19:03:00,
2013-10-12 15:08:00,67.1,63.8,30.04,WNW,291,2.0,2.0,89,0.00,,---,0.00,VWS V14.01,2013-10-12 19:08:00,
2013-10-12 15:13:00,67.0,63.7,30.04,NNE,32,4.0,4.0,89,0.00,,---,0.00,VWS V14.01,2013-10-12 19:13:00,
2013-10-12 15:18:00,66.8,63.5,30.04,NNW,335,2.0,4.0,89,0.00,,---,0.00,VWS V14.01,2013-10-12 19:18:00,
2013-10-12 15:23:00,66.6,63.6,30.05,NNE,29,2.0,2.0,90,0.00,,---,0.00,VWS V14.01,2013-10-12 19:23:00,
2013-10-12 15:28:00,66.5,63.5,30.05,NNE,23,1.0,1.0,90,0.00,,---,0.00,VWS V14.01,2013-10-12 19:28:00,
2013-10-12 15:33:00,66.6,63.6,30.05,NNE,24,2.0,2.0,90,0.00,,---,0.00,VWS V14.01,2013-10-12 19:33:00,
2013-10-12 15:38:00,66.7,63.7,30.05,NNE,33,2.0,3.0,90,0.00,,---,0.00,VWS V14.01,2013-10-12 19:38:00,
2013-10-12 15:43:00,66.8,63.8,30.05,NNE,33,0.0,1.0,90,0.00,,---,0.00,VWS V14.01,2013-10-12 19:43:00,
2013-10-12 15:48:00,66.9,63.9,30.05,North,360,0.0,3.0,90,0.00,,---,0.00,VWS V14.01,2013-10-12 19:48:00,
2013-10-12 15:53:00,66.9,63.9,30.05,North,349,2.0,3.0,90,0.00,,---,0.00,VWS V14.01,2013-10-12 19:53:00,
2013-10-12 15:58:00,66.8,64.1,30.05,NW,315,0.0,0.0,91,0.00,,---,0.00,VWS V14.01,2013-10-12 19:58:00,
2013-10-12 16:03:00,66.9,64.2,30.05,NW,315,0.0,0.0,91,0.00,,---,0.00,VWS V14.01,2013-10-12 20:03:00,
2013-10-12 16:08:00,67.0,64.3,30.05,NNW,340,2.0,2.0,91,0.00,,---,0.00,VWS V14.01,2013-10-12 20:08:00,
2013-10-12 16:13:00,67.3,64.6,30.05,NW,323,1.0,2.0,91,0.00,,---,0.00,VWS V14.01,2013-10-12 20:13:00,
2013-10-12 16:18:00,67.5,64.5,30.05,NNE,26,2.0,2.0,90,0.00,,---,0.00,VWS V14.01,2013-10-12 20:18:00,
2013-10-12 16:23:00,67.6,64.2,30.05,NNE,26,1.0,3.0,89,0.00,,---,0.00,VWS V14.01,2013-10-12 20:23:00,
2013-10-12 16:28:00,67.8,64.4,30.05,NNE,27,1.0,1.0,89,0.00,,---,0.00,VWS V14.01,2013-10-12 20:28:00,
2013-10-12 16:33:00,67.9,64.5,30.05,NNE,24,1.0,1.0,89,0.00,,---,0.00,VWS V14.01,2013-10-12 20:33:00,
2013-10-12 16:39:00,67.9,64.2,30.05,NNE,17,3.0,3.0,88,0.00,,---,0.00,VWS V14.01,2013-10-12 20:39:00,
2013-10-12 16:44:00,67.9,64.2,30.05,NNE,27,2.0,3.0,88,0.00,,---,0.00,VWS V14.01,2013-10-12 20:44:00,
2013-10-12 16:49:00,67.8,64.1,30.05,NNE,16,0.0,2.0,88,0.00,,---,0.00,VWS V14.01,2013-10-12 20:49:00,
2013-10-12 16:54:00,67.8,64.1,30.05,NNE,24,3.0,3.0,88,0.00,,---,0.00,VWS V14.01,2013-10-12 20:54:00,
2013-10-12 16:59:00,67.9,64.5,30.05,NNE,27,1.0,1.0,89,0.00,,---,0.00,VWS V14.01,2013-10-12 20:59:00,
2013-10-12 17:04:00,68.0,64.6,30.05,NNE,27,0.0,2.0,89,0.00,,---,0.00,VWS V14.01,2013-10-12 21:04:00,
2013-10-12 17:09:00,67.9,64.2,30.05,NNE,27,3.0,3.0,88,0.00,,---,0.00,VWS V14.01,2013-10-12 21:09:00,
2013-10-12 17:14:00,67.9,64.5,30.05,NNE,29,0.0,0.0,89,0.00,,---,0.00,VWS V14.01,2013-10-12 21:14:00,
2013-10-12 17:19:00,67.8,64.4,30.06,NE,42,0.0,0.0,89,0.00,,---,0.00,VWS V14.01,2013-10-12 21:19:00,
2013-10-12 17:24:00,67.7,64.3,30.06,NNE,30,1.0,1.0,89,0.00,,---,0.00,VWS V14.01,2013-10-12 21:24:00,
2013-10-12 17:29:00,67.6,64.2,30.06,NNE,29,1.0,2.0,89,0.00,,---,0.00,VWS V14.01,2013-10-12 21:29:00,
2013-10-12 17:34:00,67.6,64.2,30.06,NNE,29,1.0,1.0,89,0.00,,---,0.00,VWS V14.01,2013-10-12 21:34:00,
2013-10-12 17:39:00,67.6,64.2,30.06,NNE,24,1.0,1.0,89,0.00,,---,0.00,VWS V14.01,2013-10-12 21:39:00,
2013-10-12 17:44:00,67.5,64.2,30.06,NNE,24,1.0,1.0,89,0.00,,---,0.00,VWS V14.01,2013-10-12 21:44:00,
2013-10-12 17:50:00,67.4,64.4,30.06,NNE,23,3.0,3.0,90,0.00,,---,0.00,VWS V14.01,2013-10-12 21:50:00,
2013-10-12 17:55:00,67.3,64.3,30.06,NNE,30,1.0,2.0,90,0.00,,---,0.00,VWS V14.01,2013-10-12 21:55:00,
2013-10-12 18:00:00,67.3,64.6,30.06,North,5,1.0,1.0,91,0.00,,---,0.00,VWS V14.01,2013-10-12 22:00:00,
2013-10-12 18:05:00,67.2,64.5,30.06,NNE,29,2.0,2.0,91,0.00,,---,0.00,VWS V14.01,2013-10-12 22:05:00,
2013-10-12 18:10:00,67.0,64.3,30.06,NNE,30,2.0,2.0,91,0.00,,---,0.00,VWS V14.01,2013-10-12 22:10:00,
2013-10-12 18:15:00,66.9,64.5,30.07,NNE,24,1.0,1.0,92,0.00,,---,0.00,VWS V14.01,2013-10-12 22:15:00,
2013-10-12 18:20:00,66.7,64.3,30.07,NNE,26,2.0,3.0,92,0.00,,---,0.00,VWS V14.01,2013-10-12 22:20:00,
2013-10-12 18:25:00,66.6,64.5,30.07,North,5,1.0,1.0,93,0.00,,---,0.00,VWS V14.01,2013-10-12 22:25:00,
2013-10-12 18:30:00,66.5,64.4,30.07,NNE,27,2.0,2.0,93,0.00,,---,0.00,VWS V14.01,2013-10-12 22:30:00,
2013-10-12 18:35:00,66.4,64.3,30.07,NNE,26,1.0,3.0,93,0.00,,---,0.00,VWS V14.01,2013-10-12 22:35:00,
2013-10-12 18:40:00,66.4,64.3,30.07,NNE,32,2.0,2.0,93,0.00,,---,0.00,VWS V14.01,2013-10-12 22:40:00,
2013-10-12 18:45:00,66.3,64.5,30.07,NNE,30,1.0,2.0,94,0.00,,---,0.00,VWS V14.01,2013-10-12 22:45:00,
2013-10-12 18:50:00,66.2,64.4,30.08,NNW,347,2.0,2.0,94,0.00,,---,0.00,VWS V14.01,2013-10-12 22:50:00,
2013-10-12 18:55:00,66.0,64.2,30.08,NNE,23,1.0,1.0,94,0.00,,---,0.00,VWS V14.01,2013-10-12 22:55:00,
2013-10-12 19:00:00,66.0,64.2,30.08,NNE,26,2.0,2.0,94,0.00,,---,0.00,VWS V14.01,2013-10-12 23:00:00,
2013-10-12 19:05:00,66.0,64.2,30.08,NNE,26,2.0,2.0,94,0.00,,---,0.00,VWS V14.01,2013-10-12 23:05:00,
2013-10-12 19:10:00,65.8,64.3,30.08,NNE,27,0.0,1.0,95,0.00,,---,0.00,VWS V14.01,2013-10-12 23:10:00,
2013-10-12 19:15:00,65.8,64.3,30.08,NNE,30,3.0,4.0,95,0.00,,---,0.00,VWS V14.01,2013-10-12 23:15:00,
2013-10-12 19:20:00,65.7,64.2,30.08,NNE,32,2.0,2.0,95,0.00,,---,0.00,VWS V14.01,2013-10-12 23:20:00,
2013-10-12 19:25:00,65.7,64.2,30.08,NE,35,2.0,2.0,95,0.00,,---,0.00,VWS V14.01,2013-10-12 23:25:00,
2013-10-12 19:30:00,65.7,64.2,30.08,NNE,30,2.0,2.0,95,0.00,,---,0.00,VWS V14.01,2013-10-12 23:30:00,
2013-10-12 19:35:00,65.7,64.2,30.08,NNE,23,3.0,3.0,95,0.00,,---,0.00,VWS V14.01,2013-10-12 23:35:00,
2013-10-12 19:40:00,65.7,64.2,30.08,NE,42,2.0,2.0,95,0.00,,---,0.00,VWS V14.01,2013-10-12 23:40:00,
2013-10-12 19:45:00,65.6,64.1,30.09,NNE,26,3.0,3.0,95,0.00,,---,0.00,VWS V14.01,2013-10-12 23:45:00,
2013-10-12 19:50:00,65.6,64.1,30.09,NNE,27,2.0,3.0,95,0.00,,---,0.00,VWS V14.01,2013-10-12 23:50:00,
2013-10-12 19:55:00,65.6,64.1,30.09,NNE,26,2.0,2.0,95,0.00,,---,0.00,VWS V14.01,2013-10-12 23:55:00,
2013-10-12 20:00:00,65.6,64.1,30.09,NNE,28,2.0,2.0,95,0.00,,---,0.00,VWS V14.01,2013-10-13 00:00:00,
2013-10-12 20:06:00,65.6,64.1,30.09,NNE,28,2.0,2.0,95,0.00,,---,0.00,VWS V14.01,2013-10-13 00:06:00,
2013-10-12 20:11:00,65.5,64.0,30.09,NNE,24,1.0,1.0,95,0.00,,---,0.00,VWS V14.01,2013-10-13 00:11:00,
2013-10-12 20:16:00,65.5,64.0,30.09,NNE,24,1.0,1.0,95,0.00,,---,0.00,VWS V14.01,2013-10-13 00:16:00,
2013-10-12 20:21:00,65.5,64.0,30.09,NNE,24,0.0,0.0,95,0.00,,---,0.00,VWS V14.01,2013-10-13 00:21:00,
2013-10-12 20:26:00,65.4,63.6,30.09,NNE,24,0.0,0.0,94,0.00,,---,0.00,VWS V14.01,2013-10-13 00:26:00,
2013-10-12 20:31:00,65.4,63.9,30.09,NNE,24,0.0,0.0,95,0.00,,---,0.00,VWS V14.01,2013-10-13 00:31:00,
2013-10-12 20:36:00,65.4,63.9,30.09,NNE,24,0.0,0.0,95,0.00,,---,0.00,VWS V14.01,2013-10-13 00:36:00,
2013-10-12 20:41:00,65.4,63.9,30.09,NNE,24,0.0,0.0,95,0.00,,---,0.00,VWS V14.01,2013-10-13 00:41:00,
2013-10-12 20:46:00,65.4,63.9,30.09,NNE,24,0.0,0.0,95,0.00,,---,0.00,VWS V14.01,2013-10-13 00:46:00,
2013-10-12 20:51:00,65.4,63.9,30.10,NE,45,0.0,0.0,95,0.00,,---,0.00,VWS V14.01,2013-10-13 00:51:00,
2013-10-12 20:56:00,65.4,63.9,30.10,NE,46,1.0,2.0,95,0.00,,---,0.00,VWS V14.01,2013-10-13 00:56:00,
2013-10-12 21:01:00,65.5,64.0,30.10,NNE,26,1.0,2.0,95,0.00,,---,0.00,VWS V14.01,2013-10-13 01:01:00,
2013-10-12 21:06:00,65.4,63.9,30.09,NNE,33,1.0,2.0,95,0.00,,---,0.00,VWS V14.01,2013-10-13 01:06:00,
2013-10-12 21:11:00,65.4,63.9,30.09,NNE,33,1.0,2.0,95,0.00,,---,0.00,VWS V14.01,2013-10-13 01:11:00,
2013-10-12 21:16:00,65.4,63.9,30.09,NE,42,1.0,2.0,95,0.00,,---,0.00,VWS V14.01,2013-10-13 01:16:00,
2013-10-12 21:21:00,65.4,63.9,30.10,NNE,33,2.0,2.0,95,0.00,,---,0.00,VWS V14.01,2013-10-13 01:21:00,
2013-10-12 21:26:00,65.5,64.0,30.10,NNE,27,1.0,2.0,95,0.00,,---,0.00,VWS V14.01,2013-10-13 01:26:00,
2013-10-12 21:31:00,65.5,63.7,30.10,NNE,20,1.0,1.0,94,0.00,,---,0.00,VWS V14.01,2013-10-13 01:31:00,
2013-10-12 21:36:00,65.5,63.7,30.10,NNE,25,2.0,4.0,94,0.00,,---,0.00,VWS V14.01,2013-10-13 01:36:00,
2013-10-12 21:41:00,65.5,63.7,30.10,NNE,23,1.0,2.0,94,0.00,,---,0.00,VWS V14.01,2013-10-13 01:41:00,
2013-10-12 21:46:00,65.5,63.7,30.10,NNE,30,1.0,2.0,94,0.00,,---,0.00,VWS V14.01,2013-10-13 01:46:00,
2013-10-12 21:52:00,65.5,63.7,30.10,NE,39,2.0,2.0,94,0.00,,---,0.00,VWS V14.01,2013-10-13 01:52:00,
2013-10-12 21:57:00,65.5,63.7,30.10,NNE,30,2.0,2.0,94,0.00,,---,0.00,VWS V14.01,2013-10-13 01:57:00,
2013-10-12 22:02:00,65.5,63.4,30.10,NNE,27,3.0,4.0,93,0.00,,---,0.00,VWS V14.01,2013-10-13 02:02:00,
2013-10-12 22:07:00,65.5,63.4,30.10,NNE,27,3.0,4.0,93,0.00,,---,0.00,VWS V14.01,2013-10-13 02:07:00,
2013-10-12 22:12:00,65.5,63.4,30.10,NE,42,3.0,3.0,93,0.00,,---,0.00,VWS V14.01,2013-10-13 02:12:00,
2013-10-12 22:17:00,65.5,63.4,30.10,NNE,22,3.0,3.0,93,0.00,,---,0.00,VWS V14.01,2013-10-13 02:17:00,
2013-10-12 22:22:00,65.5,63.4,30.10,NE,36,3.0,3.0,93,0.00,,---,0.00,VWS V14.01,2013-10-13 02:22:00,
2013-10-12 22:27:00,65.5,63.4,30.11,NNE,31,3.0,4.0,93,0.00,,---,0.00,VWS V14.01,2013-10-13 02:27:00,
2013-10-12 22:32:00,65.4,63.3,30.11,NE,42,2.0,4.0,93,0.00,,---,0.00,VWS V14.01,2013-10-13 02:32:00,
2013-10-12 22:37:00,65.4,63.3,30.11,NNE,31,3.0,3.0,93,0.00,,---,0.00,VWS V14.01,2013-10-13 02:37:00,
2013-10-12 22:42:00,65.4,63.3,30.11,ENE,58,5.0,5.0,93,0.00,,---,0.00,VWS V14.01,2013-10-13 02:42:00,
2013-10-12 22:47:00,65.3,63.2,30.11,NE,40,2.0,2.0,93,0.00,,---,0.00,VWS V14.01,2013-10-13 02:47:00,
2013-10-12 22:52:00,65.3,63.2,30.11,NE,46,3.0,4.0,93,0.00,,---,0.00,VWS V14.01,2013-10-13 02:52:00,
2013-10-12 22:57:00,65.3,63.2,30.11,NE,38,2.0,2.0,93,0.00,,---,0.00,VWS V14.01,2013-10-13 02:57:00,
2013-10-12 23:02:00,65.3,62.9,30.11,NE,34,2.0,4.0,92,0.00,,---,0.00,VWS V14.01,2013-10-13 03:02:00,
2013-10-12 23:07:00,65.2,62.8,30.11,NE,51,3.0,4.0,92,0.00,,---,0.00,VWS V14.01,2013-10-13 03:07:00,
2013-10-12 23:12:00,65.2,62.8,30.11,NE,54,3.0,4.0,92,0.00,,---,0.00,VWS V14.01,2013-10-13 03:12:00,
2013-10-12 23:17:00,65.2,62.8,30.11,NE,51,3.0,3.0,92,0.00,,---,0.00,VWS V14.01,2013-10-13 03:17:00,
2013-10-12 23:22:00,65.2,62.8,30.11,NE,36,2.0,4.0,92,0.00,,---,0.00,VWS V14.01,2013-10-13 03:22:00,
2013-10-12 23:27:00,65.1,62.7,30.10,NE,53,4.0,4.0,92,0.00,,---,0.00,VWS V14.01,2013-10-13 03:27:00,
2013-10-12 23:32:00,65.1,62.7,30.10,NE,54,3.0,3.0,92,0.00,,---,0.00,VWS V14.01,2013-10-13 03:32:00,
2013-10-12 23:37:00,65.1,62.7,30.10,NE,43,5.0,5.0,92,0.00,,---,0.00,VWS V14.01,2013-10-13 03:37:00,
2013-10-12 23:43:00,65.1,62.7,30.10,NE,51,2.0,3.0,92,0.00,,---,0.00,VWS V14.01,2013-10-13 03:43:00,
2013-10-12 23:48:00,65.0,62.6,30.10,NE,53,3.0,4.0,92,0.00,,---,0.00,VWS V14.01,2013-10-13 03:48:00,
2013-10-12 23:53:00,65.0,62.6,30.10,NE,54,4.0,4.0,92,0.00,,---,0.00,VWS V14.01,2013-10-13 03:53:00,
2013-10-12 23:58:00,64.9,62.5,30.10,NE,35,3.0,3.0,92,0.00,,---,0.00,VWS V14.01,2013-10-13 03:58:00,